SEKCJA WYDRUKÓW, pokaż »

TAF EPBY 250530Z 2506/2606 10012KT CAVOK
TEMPO 2509/2516 11016G28KT=

TAF EPGD 250530Z 2506/2606 13010KT CAVOK
PROB40 TEMPO 2508/2516 15015G25KT=

TAF EPKK 250530Z 2506/2606 06008KT CAVOK=

TAF EPKT 250530Z 2506/2606 13006KT CAVOK
BECMG 2510/2513 07010KT=

TAF EPLB 250530Z 2506/2606 VRB04KT CAVOK
BECMG 2507/2509 10010KT=

TAF EPLL 250530Z 2506/2606 11010KT CAVOK=

TAF EPMO 250530Z 2506/2606 10010KT CAVOK =

TAF EPPO 250530Z 2506/2606 12010KT CAVOK
PROB40 TEMPO 2512/2518 SCT040CB=

TAF EPRZ 250530Z 2506/2606 08010KT CAVOK=

TAF EPSC 250530Z 2506/2606 13010KT CAVOK
PROB30 TEMPO 2513/2519 -TSRA SCT040CB=

TAF EPWA 250530Z 2506/2606 12010KT CAVOK=

TAF EPWR 250530Z 2506/2606 14008KT CAVOK
TEMPO 2506/2524 SCT040CB
PROB40 TEMPO 2513/2521 VRB15G25KT TSRA BKN040CB=